sensor_id;sensor_type;location;lat;lon;timestamp;P1;durP1;ratioP1;P2;durP2;ratioP2
12363;SDS011;6246;50.826;4.712;2022-12-18T00:00:43;9.53;;;6.77;;
12363;SDS011;6246;50.826;4.712;2022-12-18T00:03:11;10.27;;;7.10;;
12363;SDS011;6246;50.826;4.712;2022-12-18T00:05:45;9.50;;;7.13;;
12363;SDS011;6246;50.826;4.712;2022-12-18T00:08:11;10.30;;;7.60;;
12363;SDS011;6246;50.826;4.712;2022-12-18T00:10:37;9.40;;;6.70;;
12363;SDS011;6246;50.826;4.712;2022-12-18T00:13:03;9.47;;;7.07;;
12363;SDS011;6246;50.826;4.712;2022-12-18T00:15:29;9.43;;;7.00;;
12363;SDS011;6246;50.826;4.712;2022-12-18T00:17:55;8.33;;;6.93;;
12363;SDS011;6246;50.826;4.712;2022-12-18T00:20:21;9.30;;;6.83;;
12363;SDS011;6246;50.826;4.712;2022-12-18T00:22:51;10.30;;;7.37;;
12363;SDS011;6246;50.826;4.712;2022-12-18T00:25:17;9.67;;;6.80;;
12363;SDS011;6246;50.826;4.712;2022-12-18T00:27:43;9.87;;;6.73;;
12363;SDS011;6246;50.826;4.712;2022-12-18T00:30:09;8.33;;;6.70;;
12363;SDS011;6246;50.826;4.712;2022-12-18T00:32:35;8.50;;;6.77;;
12363;SDS011;6246;50.826;4.712;2022-12-18T00:35:02;10.37;;;7.13;;
12363;SDS011;6246;50.826;4.712;2022-12-18T00:37:28;8.87;;;6.80;;
12363;SDS011;6246;50.826;4.712;2022-12-18T00:39:54;9.07;;;7.23;;
12363;SDS011;6246;50.826;4.712;2022-12-18T00:42:20;8.93;;;6.33;;
12363;SDS011;6246;50.826;4.712;2022-12-18T00:45:05;9.33;;;6.47;;
12363;SDS011;6246;50.826;4.712;2022-12-18T00:47:31;10.07;;;7.37;;
12363;SDS011;6246;50.826;4.712;2022-12-18T00:49:57;9.03;;;6.43;;
12363;SDS011;6246;50.826;4.712;2022-12-18T00:52:23;8.63;;;6.77;;
12363;SDS011;6246;50.826;4.712;2022-12-18T00:54:49;9.17;;;6.33;;
12363;SDS011;6246;50.826;4.712;2022-12-18T00:57:15;9.53;;;7.07;;
12363;SDS011;6246;50.826;4.712;2022-12-18T00:59:41;9.17;;;6.97;;
12363;SDS011;6246;50.826;4.712;2022-12-18T01:02:07;11.07;;;7.60;;
12363;SDS011;6246;50.826;4.712;2022-12-18T01:04:33;9.13;;;6.87;;
12363;SDS011;6246;50.826;4.712;2022-12-18T01:06:59;9.57;;;6.93;;
12363;SDS011;6246;50.826;4.712;2022-12-18T01:09:25;8.80;;;6.53;;
12363;SDS011;6246;50.826;4.712;2022-12-18T01:11:51;9.07;;;6.50;;
12363;SDS011;6246;50.826;4.712;2022-12-18T01:14:17;9.00;;;6.67;;
12363;SDS011;6246;50.826;4.712;2022-12-18T01:16:43;9.90;;;7.00;;
12363;SDS011;6246;50.826;4.712;2022-12-18T01:19:09;9.23;;;6.97;;
12363;SDS011;6246;50.826;4.712;2022-12-18T01:21:35;9.33;;;6.33;;
12363;SDS011;6246;50.826;4.712;2022-12-18T01:24:01;9.37;;;6.37;;
12363;SDS011;6246;50.826;4.712;2022-12-18T01:26:27;10.10;;;6.97;;
12363;SDS011;6246;50.826;4.712;2022-12-18T01:28:54;10.40;;;7.07;;
12363;SDS011;6246;50.826;4.712;2022-12-18T01:31:22;8.33;;;6.17;;
12363;SDS011;6246;50.826;4.712;2022-12-18T01:33:49;9.00;;;6.60;;
12363;SDS011;6246;50.826;4.712;2022-12-18T01:36:16;9.67;;;6.97;;
12363;SDS011;6246;50.826;4.712;2022-12-18T01:38:42;10.00;;;7.13;;
12363;SDS011;6246;50.826;4.712;2022-12-18T01:41:08;9.73;;;6.80;;
12363;SDS011;6246;50.826;4.712;2022-12-18T01:46:07;8.77;;;6.50;;
12363;SDS011;6246;50.826;4.712;2022-12-18T01:48:33;9.57;;;6.40;;
12363;SDS011;6246;50.826;4.712;2022-12-18T01:50:59;9.27;;;6.90;;
12363;SDS011;6246;50.826;4.712;2022-12-18T01:53:25;7.73;;;6.20;;
12363;SDS011;6246;50.826;4.712;2022-12-18T01:55:53;7.87;;;6.13;;
12363;SDS011;6246;50.826;4.712;2022-12-18T01:58:20;10.37;;;6.70;;
12363;SDS011;6246;50.826;4.712;2022-12-18T02:00:48;9.03;;;7.00;;
12363;SDS011;6246;50.826;4.712;2022-12-18T02:03:14;9.17;;;6.73;;
12363;SDS011;6246;50.826;4.712;2022-12-18T02:05:45;9.30;;;6.43;;
12363;SDS011;6246;50.826;4.712;2022-12-18T02:15:47;8.83;;;6.30;;
12363;SDS011;6246;50.826;4.712;2022-12-18T02:18:18;9.10;;;6.60;;
12363;SDS011;6246;50.826;4.712;2022-12-18T02:20:47;9.30;;;6.30;;
12363;SDS011;6246;50.826;4.712;2022-12-18T02:28:31;8.57;;;6.37;;
12363;SDS011;6246;50.826;4.712;2022-12-18T02:30:59;8.70;;;6.40;;
12363;SDS011;6246;50.826;4.712;2022-12-18T02:33:27;9.10;;;5.90;;
12363;SDS011;6246;50.826;4.712;2022-12-18T02:35:54;9.03;;;6.37;;
12363;SDS011;6246;50.826;4.712;2022-12-18T02:38:21;8.73;;;6.00;;
12363;SDS011;6246;50.826;4.712;2022-12-18T02:40:47;8.87;;;6.27;;
12363;SDS011;6246;50.826;4.712;2022-12-18T02:43:15;8.47;;;6.07;;
12363;SDS011;6246;50.826;4.712;2022-12-18T02:45:48;9.70;;;6.40;;
12363;SDS011;6246;50.826;4.712;2022-12-18T02:48:22;8.40;;;6.00;;
12363;SDS011;6246;50.826;4.712;2022-12-18T02:50:59;9.53;;;6.47;;
12363;SDS011;6246;50.826;4.712;2022-12-18T02:53:36;8.17;;;6.27;;
12363;SDS011;6246;50.826;4.712;2022-12-18T02:56:14;8.47;;;5.83;;
12363;SDS011;6246;50.826;4.712;2022-12-18T03:04:04;8.80;;;6.23;;
12363;SDS011;6246;50.826;4.712;2022-12-18T03:06:35;7.90;;;6.07;;
12363;SDS011;6246;50.826;4.712;2022-12-18T03:09:06;9.47;;;6.20;;
12363;SDS011;6246;50.826;4.712;2022-12-18T03:11:33;11.07;;;6.77;;
12363;SDS011;6246;50.826;4.712;2022-12-18T03:14:35;7.77;;;5.83;;
12363;SDS011;6246;50.826;4.712;2022-12-18T03:17:03;8.20;;;6.00;;
12363;SDS011;6246;50.826;4.712;2022-12-18T03:19:31;8.90;;;6.03;;
12363;SDS011;6246;50.826;4.712;2022-12-18T03:22:00;8.53;;;6.20;;
12363;SDS011;6246;50.826;4.712;2022-12-18T03:24:28;8.63;;;6.33;;
12363;SDS011;6246;50.826;4.712;2022-12-18T03:26:57;8.80;;;6.33;;
12363;SDS011;6246;50.826;4.712;2022-12-18T03:29:25;7.77;;;5.87;;
12363;SDS011;6246;50.826;4.712;2022-12-18T03:31:56;8.80;;;6.33;;
12363;SDS011;6246;50.826;4.712;2022-12-18T03:34:26;10.73;;;6.60;;
12363;SDS011;6246;50.826;4.712;2022-12-18T03:36:54;9.40;;;6.30;;
12363;SDS011;6246;50.826;4.712;2022-12-18T03:39:20;8.20;;;5.83;;
12363;SDS011;6246;50.826;4.712;2022-12-18T03:41:55;8.23;;;6.03;;
12363;SDS011;6246;50.826;4.712;2022-12-18T03:47:14;10.20;;;6.70;;
12363;SDS011;6246;50.826;4.712;2022-12-18T03:49:47;8.33;;;5.77;;
12363;SDS011;6246;50.826;4.712;2022-12-18T03:52:21;8.10;;;6.20;;
12363;SDS011;6246;50.826;4.712;2022-12-18T03:54:48;9.23;;;6.57;;
12363;SDS011;6246;50.826;4.712;2022-12-18T03:57:18;8.20;;;6.00;;
12363;SDS011;6246;50.826;4.712;2022-12-18T03:59:45;8.53;;;6.13;;
12363;SDS011;6246;50.826;4.712;2022-12-18T04:02:13;9.20;;;6.07;;
12363;SDS011;6246;50.826;4.712;2022-12-18T04:04:40;9.03;;;6.17;;
12363;SDS011;6246;50.826;4.712;2022-12-18T04:07:06;8.57;;;5.83;;
12363;SDS011;6246;50.826;4.712;2022-12-18T04:09:32;9.00;;;5.60;;
12363;SDS011;6246;50.826;4.712;2022-12-18T04:11:59;8.47;;;5.73;;
12363;SDS011;6246;50.826;4.712;2022-12-18T04:14:25;9.97;;;6.67;;
12363;SDS011;6246;50.826;4.712;2022-12-18T04:16:51;8.80;;;5.97;;
12363;SDS011;6246;50.826;4.712;2022-12-18T04:19:17;8.10;;;6.10;;
12363;SDS011;6246;50.826;4.712;2022-12-18T04:21:43;8.60;;;6.03;;
12363;SDS011;6246;50.826;4.712;2022-12-18T04:24:09;7.70;;;5.83;;
12363;SDS011;6246;50.826;4.712;2022-12-18T04:26:35;7.53;;;5.50;;
12363;SDS011;6246;50.826;4.712;2022-12-18T04:29:01;9.07;;;6.20;;
12363;SDS011;6246;50.826;4.712;2022-12-18T04:31:27;7.27;;;5.40;;
12363;SDS011;6246;50.826;4.712;2022-12-18T04:33:53;8.97;;;6.07;;
12363;SDS011;6246;50.826;4.712;2022-12-18T04:36:19;8.10;;;5.93;;
12363;SDS011;6246;50.826;4.712;2022-12-18T04:38:46;7.60;;;5.77;;
12363;SDS011;6246;50.826;4.712;2022-12-18T04:41:12;7.77;;;5.87;;
12363;SDS011;6246;50.826;4.712;2022-12-18T04:43:38;8.83;;;5.80;;
12363;SDS011;6246;50.826;4.712;2022-12-18T04:46:07;8.40;;;5.70;;
12363;SDS011;6246;50.826;4.712;2022-12-18T04:48:34;8.23;;;5.73;;
12363;SDS011;6246;50.826;4.712;2022-12-18T04:51:00;8.60;;;6.10;;
12363;SDS011;6246;50.826;4.712;2022-12-18T04:53:26;7.87;;;5.50;;
12363;SDS011;6246;50.826;4.712;2022-12-18T04:56:11;8.67;;;5.97;;
12363;SDS011;6246;50.826;4.712;2022-12-18T04:58:38;7.70;;;5.37;;
12363;SDS011;6246;50.826;4.712;2022-12-18T05:01:04;8.80;;;5.60;;
12363;SDS011;6246;50.826;4.712;2022-12-18T05:03:31;8.17;;;5.70;;
12363;SDS011;6246;50.826;4.712;2022-12-18T05:05:57;8.93;;;5.97;;
12363;SDS011;6246;50.826;4.712;2022-12-18T05:08:23;7.60;;;5.40;;
12363;SDS011;6246;50.826;4.712;2022-12-18T05:10:49;9.47;;;6.20;;
12363;SDS011;6246;50.826;4.712;2022-12-18T05:13:15;8.27;;;5.73;;
12363;SDS011;6246;50.826;4.712;2022-12-18T05:15:41;8.53;;;6.00;;
12363;SDS011;6246;50.826;4.712;2022-12-18T05:18:07;8.23;;;6.10;;
12363;SDS011;6246;50.826;4.712;2022-12-18T05:20:33;8.83;;;5.80;;
12363;SDS011;6246;50.826;4.712;2022-12-18T05:22:59;7.53;;;5.80;;
12363;SDS011;6246;50.826;4.712;2022-12-18T05:25:25;7.40;;;5.53;;
12363;SDS011;6246;50.826;4.712;2022-12-18T05:27:51;8.10;;;5.93;;
12363;SDS011;6246;50.826;4.712;2022-12-18T05:30:17;7.87;;;5.67;;
12363;SDS011;6246;50.826;4.712;2022-12-18T05:32:43;7.13;;;5.60;;
12363;SDS011;6246;50.826;4.712;2022-12-18T05:35:10;7.60;;;5.67;;
12363;SDS011;6246;50.826;4.712;2022-12-18T05:37:36;8.70;;;5.90;;
12363;SDS011;6246;50.826;4.712;2022-12-18T05:40:03;7.33;;;5.27;;
12363;SDS011;6246;50.826;4.712;2022-12-18T05:42:30;8.07;;;5.57;;
12363;SDS011;6246;50.826;4.712;2022-12-18T05:44:56;7.30;;;5.50;;
12363;SDS011;6246;50.826;4.712;2022-12-18T05:47:22;7.83;;;5.60;;
12363;SDS011;6246;50.826;4.712;2022-12-18T05:49:48;9.33;;;6.23;;
12363;SDS011;6246;50.826;4.712;2022-12-18T05:52:14;7.97;;;5.57;;
12363;SDS011;6246;50.826;4.712;2022-12-18T05:54:40;8.63;;;5.67;;
12363;SDS011;6246;50.826;4.712;2022-12-18T05:57:06;7.17;;;5.30;;
12363;SDS011;6246;50.826;4.712;2022-12-18T05:59:32;7.97;;;5.67;;
12363;SDS011;6246;50.826;4.712;2022-12-18T06:01:58;7.40;;;5.40;;
12363;SDS011;6246;50.826;4.712;2022-12-18T06:04:26;7.97;;;5.50;;
12363;SDS011;6246;50.826;4.712;2022-12-18T06:06:52;7.53;;;5.60;;
12363;SDS011;6246;50.826;4.712;2022-12-18T06:09:18;7.00;;;5.50;;
12363;SDS011;6246;50.826;4.712;2022-12-18T06:11:44;9.97;;;5.83;;
12363;SDS011;6246;50.826;4.712;2022-12-18T06:14:10;7.37;;;5.47;;
12363;SDS011;6246;50.826;4.712;2022-12-18T06:16:36;8.37;;;5.73;;
12363;SDS011;6246;50.826;4.712;2022-12-18T06:19:03;7.20;;;5.60;;
12363;SDS011;6246;50.826;4.712;2022-12-18T06:21:30;7.67;;;5.37;;
12363;SDS011;6246;50.826;4.712;2022-12-18T06:23:56;8.30;;;5.60;;
12363;SDS011;6246;50.826;4.712;2022-12-18T06:26:22;8.20;;;6.10;;
12363;SDS011;6246;50.826;4.712;2022-12-18T06:28:48;8.10;;;5.67;;
12363;SDS011;6246;50.826;4.712;2022-12-18T06:31:14;8.10;;;5.57;;
12363;SDS011;6246;50.826;4.712;2022-12-18T06:33:40;6.80;;;5.53;;
12363;SDS011;6246;50.826;4.712;2022-12-18T06:36:07;7.73;;;5.43;;
12363;SDS011;6246;50.826;4.712;2022-12-18T06:38:34;7.43;;;5.60;;
12363;SDS011;6246;50.826;4.712;2022-12-18T06:41:05;7.13;;;5.33;;
12363;SDS011;6246;50.826;4.712;2022-12-18T06:43:31;7.70;;;5.23;;
12363;SDS011;6246;50.826;4.712;2022-12-18T06:45:58;7.97;;;5.70;;
12363;SDS011;6246;50.826;4.712;2022-12-18T06:48:24;8.00;;;5.30;;
12363;SDS011;6246;50.826;4.712;2022-12-18T06:50:50;8.60;;;5.87;;
12363;SDS011;6246;50.826;4.712;2022-12-18T06:53:16;7.43;;;5.63;;
12363;SDS011;6246;50.826;4.712;2022-12-18T06:55:42;7.57;;;5.43;;
12363;SDS011;6246;50.826;4.712;2022-12-18T06:58:08;7.23;;;5.27;;
12363;SDS011;6246;50.826;4.712;2022-12-18T07:00:34;8.37;;;5.80;;
12363;SDS011;6246;50.826;4.712;2022-12-18T07:03:00;7.97;;;5.00;;
12363;SDS011;6246;50.826;4.712;2022-12-18T07:05:26;7.73;;;5.30;;
12363;SDS011;6246;50.826;4.712;2022-12-18T07:07:52;7.57;;;5.50;;
12363;SDS011;6246;50.826;4.712;2022-12-18T07:10:18;6.73;;;5.33;;
12363;SDS011;6246;50.826;4.712;2022-12-18T07:12:44;8.33;;;5.73;;
12363;SDS011;6246;50.826;4.712;2022-12-18T07:15:11;8.40;;;5.73;;
12363;SDS011;6246;50.826;4.712;2022-12-18T07:17:37;7.53;;;5.50;;
12363;SDS011;6246;50.826;4.712;2022-12-18T07:20:03;6.97;;;5.23;;
12363;SDS011;6246;50.826;4.712;2022-12-18T07:22:29;7.53;;;5.83;;
12363;SDS011;6246;50.826;4.712;2022-12-18T07:24:55;7.67;;;5.40;;
12363;SDS011;6246;50.826;4.712;2022-12-18T07:27:21;7.20;;;5.33;;
12363;SDS011;6246;50.826;4.712;2022-12-18T07:29:47;7.33;;;5.67;;
12363;SDS011;6246;50.826;4.712;2022-12-18T07:32:14;8.67;;;5.50;;
12363;SDS011;6246;50.826;4.712;2022-12-18T07:34:40;7.67;;;5.60;;
12363;SDS011;6246;50.826;4.712;2022-12-18T07:37:06;7.73;;;5.40;;
12363;SDS011;6246;50.826;4.712;2022-12-18T07:39:32;6.93;;;5.20;;
12363;SDS011;6246;50.826;4.712;2022-12-18T07:41:58;7.53;;;5.07;;
12363;SDS011;6246;50.826;4.712;2022-12-18T07:44:42;7.57;;;5.23;;
12363;SDS011;6246;50.826;4.712;2022-12-18T07:47:08;6.67;;;5.20;;
12363;SDS011;6246;50.826;4.712;2022-12-18T07:49:34;6.23;;;5.13;;
12363;SDS011;6246;50.826;4.712;2022-12-18T07:52:01;6.90;;;5.20;;
12363;SDS011;6246;50.826;4.712;2022-12-18T07:54:27;7.57;;;5.13;;
12363;SDS011;6246;50.826;4.712;2022-12-18T07:56:53;7.77;;;5.63;;
12363;SDS011;6246;50.826;4.712;2022-12-18T07:59:19;7.93;;;5.70;;
12363;SDS011;6246;50.826;4.712;2022-12-18T08:01:45;6.97;;;5.27;;
12363;SDS011;6246;50.826;4.712;2022-12-18T08:04:11;7.20;;;5.40;;
12363;SDS011;6246;50.826;4.712;2022-12-18T08:06:37;6.90;;;5.40;;
12363;SDS011;6246;50.826;4.712;2022-12-18T08:09:03;7.73;;;5.27;;
12363;SDS011;6246;50.826;4.712;2022-12-18T08:11:30;8.17;;;5.30;;
12363;SDS011;6246;50.826;4.712;2022-12-18T08:13:56;6.47;;;4.77;;
12363;SDS011;6246;50.826;4.712;2022-12-18T08:16:23;7.07;;;5.13;;
12363;SDS011;6246;50.826;4.712;2022-12-18T08:18:50;7.67;;;5.27;;
12363;SDS011;6246;50.826;4.712;2022-12-18T08:21:18;8.20;;;5.33;;
12363;SDS011;6246;50.826;4.712;2022-12-18T08:23:46;7.67;;;5.47;;
12363;SDS011;6246;50.826;4.712;2022-12-18T08:26:12;8.17;;;5.40;;
12363;SDS011;6246;50.826;4.712;2022-12-18T08:28:38;7.27;;;5.53;;
12363;SDS011;6246;50.826;4.712;2022-12-18T08:31:04;6.83;;;5.27;;
12363;SDS011;6246;50.826;4.712;2022-12-18T08:33:31;7.20;;;5.27;;
12363;SDS011;6246;50.826;4.712;2022-12-18T08:35:58;8.23;;;5.47;;
12363;SDS011;6246;50.826;4.712;2022-12-18T08:38:24;6.03;;;4.90;;
12363;SDS011;6246;50.826;4.712;2022-12-18T08:40:54;7.10;;;5.13;;
12363;SDS011;6246;50.826;4.712;2022-12-18T08:43:24;5.67;;;4.67;;
12363;SDS011;6246;50.826;4.712;2022-12-18T08:46:08;6.10;;;4.67;;
12363;SDS011;6246;50.826;4.712;2022-12-18T08:48:34;6.63;;;4.73;;
12363;SDS011;6246;50.826;4.712;2022-12-18T08:51:00;5.77;;;4.83;;
12363;SDS011;6246;50.826;4.712;2022-12-18T08:53:27;6.20;;;4.80;;
12363;SDS011;6246;50.826;4.712;2022-12-18T08:55:53;7.47;;;4.67;;
12363;SDS011;6246;50.826;4.712;2022-12-18T08:58:19;6.23;;;4.60;;
12363;SDS011;6246;50.826;4.712;2022-12-18T09:00:45;7.10;;;4.90;;
12363;SDS011;6246;50.826;4.712;2022-12-18T09:03:15;6.30;;;4.60;;
12363;SDS011;6246;50.826;4.712;2022-12-18T09:05:42;5.73;;;4.70;;
12363;SDS011;6246;50.826;4.712;2022-12-18T09:08:08;6.57;;;4.93;;
12363;SDS011;6246;50.826;4.712;2022-12-18T09:10:34;6.53;;;4.70;;
12363;SDS011;6246;50.826;4.712;2022-12-18T09:13:00;6.03;;;4.67;;
12363;SDS011;6246;50.826;4.712;2022-12-18T09:15:26;5.83;;;4.50;;
12363;SDS011;6246;50.826;4.712;2022-12-18T09:17:52;5.97;;;4.63;;
12363;SDS011;6246;50.826;4.712;2022-12-18T09:20:18;5.07;;;4.20;;
12363;SDS011;6246;50.826;4.712;2022-12-18T09:22:44;6.47;;;4.47;;
12363;SDS011;6246;50.826;4.712;2022-12-18T09:25:11;5.93;;;4.57;;
12363;SDS011;6246;50.826;4.712;2022-12-18T09:27:37;6.87;;;4.37;;
12363;SDS011;6246;50.826;4.712;2022-12-18T09:30:04;5.53;;;4.23;;
12363;SDS011;6246;50.826;4.712;2022-12-18T09:32:30;5.23;;;4.03;;
12363;SDS011;6246;50.826;4.712;2022-12-18T09:34:56;5.13;;;4.27;;
12363;SDS011;6246;50.826;4.712;2022-12-18T09:37:22;4.93;;;4.17;;
12363;SDS011;6246;50.826;4.712;2022-12-18T09:39:48;5.73;;;4.37;;
12363;SDS011;6246;50.826;4.712;2022-12-18T09:42:21;4.53;;;4.07;;
12363;SDS011;6246;50.826;4.712;2022-12-18T09:44:51;4.87;;;4.17;;
12363;SDS011;6246;50.826;4.712;2022-12-18T09:47:18;5.03;;;4.30;;
12363;SDS011;6246;50.826;4.712;2022-12-18T09:49:46;5.77;;;4.37;;
12363;SDS011;6246;50.826;4.712;2022-12-18T09:54:39;5.30;;;4.40;;
12363;SDS011;6246;50.826;4.712;2022-12-18T09:57:05;4.50;;;4.10;;
12363;SDS011;6246;50.826;4.712;2022-12-18T09:59:34;6.30;;;4.07;;
12363;SDS011;6246;50.826;4.712;2022-12-18T10:02:17;4.73;;;3.70;;
12363;SDS011;6246;50.826;4.712;2022-12-18T10:04:45;4.00;;;3.60;;
12363;SDS011;6246;50.826;4.712;2022-12-18T10:07:16;4.20;;;3.80;;
12363;SDS011;6246;50.826;4.712;2022-12-18T10:09:53;4.83;;;3.70;;
12363;SDS011;6246;50.826;4.712;2022-12-18T10:12:27;4.67;;;4.03;;
12363;SDS011;6246;50.826;4.712;2022-12-18T10:23:33;4.67;;;3.57;;
12363;SDS011;6246;50.826;4.712;2022-12-18T10:28:30;5.03;;;3.97;;
12363;SDS011;6246;50.826;4.712;2022-12-18T10:30:56;4.53;;;3.87;;
12363;SDS011;6246;50.826;4.712;2022-12-18T10:33:24;4.80;;;3.73;;
12363;SDS011;6246;50.826;4.712;2022-12-18T10:35:53;4.30;;;3.80;;
12363;SDS011;6246;50.826;4.712;2022-12-18T10:38:24;4.27;;;3.87;;
12363;SDS011;6246;50.826;4.712;2022-12-18T10:43:20;4.43;;;3.73;;
12363;SDS011;6246;50.826;4.712;2022-12-18T10:45:57;3.93;;;3.50;;
12363;SDS011;6246;50.826;4.712;2022-12-18T10:48:24;4.37;;;3.83;;
12363;SDS011;6246;50.826;4.712;2022-12-18T10:50:50;4.67;;;3.90;;
12363;SDS011;6246;50.826;4.712;2022-12-18T10:53:27;3.90;;;3.50;;
12363;SDS011;6246;50.826;4.712;2022-12-18T10:55:54;4.23;;;3.57;;
12363;SDS011;6246;50.826;4.712;2022-12-18T11:01:01;4.10;;;3.53;;
12363;SDS011;6246;50.826;4.712;2022-12-18T11:03:31;5.30;;;3.60;;
12363;SDS011;6246;50.826;4.712;2022-12-18T11:06:08;4.30;;;3.50;;
12363;SDS011;6246;50.826;4.712;2022-12-18T11:08:34;4.53;;;3.80;;
12363;SDS011;6246;50.826;4.712;2022-12-18T11:11:01;4.87;;;3.43;;
12363;SDS011;6246;50.826;4.712;2022-12-18T11:13:28;3.97;;;3.47;;
12363;SDS011;6246;50.826;4.712;2022-12-18T11:15:54;4.57;;;3.53;;
12363;SDS011;6246;50.826;4.712;2022-12-18T11:23:31;4.00;;;3.57;;
12363;SDS011;6246;50.826;4.712;2022-12-18T11:25:58;4.90;;;3.63;;
12363;SDS011;6246;50.826;4.712;2022-12-18T11:31:08;4.30;;;3.60;;
12363;SDS011;6246;50.826;4.712;2022-12-18T11:33:35;3.73;;;3.33;;
12363;SDS011;6246;50.826;4.712;2022-12-18T11:36:02;3.60;;;3.30;;
12363;SDS011;6246;50.826;4.712;2022-12-18T11:38:31;3.10;;;2.80;;
12363;SDS011;6246;50.826;4.712;2022-12-18T11:40:59;4.43;;;3.70;;
12363;SDS011;6246;50.826;4.712;2022-12-18T11:43:27;4.37;;;3.17;;
12363;SDS011;6246;50.826;4.712;2022-12-18T11:45:55;4.10;;;3.60;;
12363;SDS011;6246;50.826;4.712;2022-12-18T11:48:26;3.97;;;3.53;;
12363;SDS011;6246;50.826;4.712;2022-12-18T11:50:54;3.90;;;3.33;;
12363;SDS011;6246;50.826;4.712;2022-12-18T11:53:21;4.00;;;3.60;;
12363;SDS011;6246;50.826;4.712;2022-12-18T12:01:13;3.33;;;3.03;;
12363;SDS011;6246;50.826;4.712;2022-12-18T12:06:32;3.80;;;3.40;;
12363;SDS011;6246;50.826;4.712;2022-12-18T12:16:45;3.37;;;3.00;;
12363;SDS011;6246;50.826;4.712;2022-12-18T12:19:27;3.60;;;3.30;;
12363;SDS011;6246;50.826;4.712;2022-12-18T12:37:38;4.20;;;3.63;;
12363;SDS011;6246;50.826;4.712;2022-12-18T12:40:06;3.93;;;3.40;;
12363;SDS011;6246;50.826;4.712;2022-12-18T12:42:38;4.53;;;3.43;;
12363;SDS011;6246;50.826;4.712;2022-12-18T12:45:27;3.70;;;3.40;;
12363;SDS011;6246;50.826;4.712;2022-12-18T12:47:54;3.77;;;3.13;;
12363;SDS011;6246;50.826;4.712;2022-12-18T12:50:22;4.93;;;3.60;;
12363;SDS011;6246;50.826;4.712;2022-12-18T12:52:52;3.80;;;3.50;;
12363;SDS011;6246;50.826;4.712;2022-12-18T12:55:20;3.33;;;3.03;;
12363;SDS011;6246;50.826;4.712;2022-12-18T13:00:24;4.47;;;3.40;;
12363;SDS011;6246;50.826;4.712;2022-12-18T13:03:12;3.80;;;3.50;;
12363;SDS011;6246;50.826;4.712;2022-12-18T13:05:45;3.43;;;3.10;;
12363;SDS011;6246;50.826;4.712;2022-12-18T13:08:27;4.00;;;3.60;;
12363;SDS011;6246;50.826;4.712;2022-12-18T13:11:02;3.93;;;3.40;;
12363;SDS011;6246;50.826;4.712;2022-12-18T13:13:53;3.27;;;2.97;;
12363;SDS011;6246;50.826;4.712;2022-12-18T13:16:21;3.73;;;3.20;;
12363;SDS011;6246;50.826;4.712;2022-12-18T13:18:48;3.50;;;3.03;;
12363;SDS011;6246;50.826;4.712;2022-12-18T13:21:25;3.67;;;3.17;;
12363;SDS011;6246;50.826;4.712;2022-12-18T13:23:53;3.77;;;3.23;;
12363;SDS011;6246;50.826;4.712;2022-12-18T13:31:12;3.60;;;3.30;;
12363;SDS011;6246;50.826;4.712;2022-12-18T13:33:39;4.00;;;3.50;;
12363;SDS011;6246;50.826;4.712;2022-12-18T13:36:12;4.93;;;3.50;;
12363;SDS011;6246;50.826;4.712;2022-12-18T13:38:39;3.77;;;2.97;;
12363;SDS011;6246;50.826;4.712;2022-12-18T13:43:47;3.87;;;3.53;;
12363;SDS011;6246;50.826;4.712;2022-12-18T13:46:18;4.77;;;3.30;;
12363;SDS011;6246;50.826;4.712;2022-12-18T13:51:31;3.93;;;3.53;;
12363;SDS011;6246;50.826;4.712;2022-12-18T13:54:17;3.73;;;3.07;;
12363;SDS011;6246;50.826;4.712;2022-12-18T13:56:45;3.40;;;3.10;;
12363;SDS011;6246;50.826;4.712;2022-12-18T13:59:13;4.07;;;3.67;;
12363;SDS011;6246;50.826;4.712;2022-12-18T14:01:46;3.67;;;3.13;;
12363;SDS011;6246;50.826;4.712;2022-12-18T14:06:47;3.80;;;3.50;;
12363;SDS011;6246;50.826;4.712;2022-12-18T14:09:15;5.53;;;3.87;;
12363;SDS011;6246;50.826;4.712;2022-12-18T14:11:46;4.20;;;3.67;;
12363;SDS011;6246;50.826;4.712;2022-12-18T14:14:13;3.40;;;3.10;;
12363;SDS011;6246;50.826;4.712;2022-12-18T14:16:40;4.00;;;3.50;;
12363;SDS011;6246;50.826;4.712;2022-12-18T14:19:11;3.50;;;3.20;;
12363;SDS011;6246;50.826;4.712;2022-12-18T14:21:39;3.37;;;3.07;;
12363;SDS011;6246;50.826;4.712;2022-12-18T14:24:06;4.30;;;3.53;;
12363;SDS011;6246;50.826;4.712;2022-12-18T14:26:38;4.47;;;3.33;;
12363;SDS011;6246;50.826;4.712;2022-12-18T14:34:51;3.73;;;3.37;;
12363;SDS011;6246;50.826;4.712;2022-12-18T14:37:22;4.50;;;3.23;;
12363;SDS011;6246;50.826;4.712;2022-12-18T14:40:02;3.80;;;3.50;;
12363;SDS011;6246;50.826;4.712;2022-12-18T14:42:30;3.47;;;3.17;;
12363;SDS011;6246;50.826;4.712;2022-12-18T14:47:55;4.63;;;3.60;;
12363;SDS011;6246;50.826;4.712;2022-12-18T14:50:21;4.07;;;3.43;;
12363;SDS011;6246;50.826;4.712;2022-12-18T14:52:47;4.60;;;3.77;;
12363;SDS011;6246;50.826;4.712;2022-12-18T14:55:16;3.87;;;3.40;;
12363;SDS011;6246;50.826;4.712;2022-12-18T14:57:43;4.13;;;3.63;;
12363;SDS011;6246;50.826;4.712;2022-12-18T15:00:16;4.37;;;3.63;;
12363;SDS011;6246;50.826;4.712;2022-12-18T15:02:43;3.73;;;3.30;;
12363;SDS011;6246;50.826;4.712;2022-12-18T15:05:18;3.90;;;3.20;;
12363;SDS011;6246;50.826;4.712;2022-12-18T15:07:46;4.47;;;3.40;;
12363;SDS011;6246;50.826;4.712;2022-12-18T15:10:14;3.87;;;3.57;;
12363;SDS011;6246;50.826;4.712;2022-12-18T15:12:47;3.73;;;3.43;;
12363;SDS011;6246;50.826;4.712;2022-12-18T15:20:24;4.20;;;3.50;;
12363;SDS011;6246;50.826;4.712;2022-12-18T15:22:50;4.17;;;3.67;;
12363;SDS011;6246;50.826;4.712;2022-12-18T15:25:34;3.47;;;3.17;;
12363;SDS011;6246;50.826;4.712;2022-12-18T15:28:01;4.23;;;3.40;;
12363;SDS011;6246;50.826;4.712;2022-12-18T15:30:28;4.33;;;3.67;;
12363;SDS011;6246;50.826;4.712;2022-12-18T15:33:16;4.93;;;3.63;;
12363;SDS011;6246;50.826;4.712;2022-12-18T15:35:40;3.70;;;3.33;;
12363;SDS011;6246;50.826;4.712;2022-12-18T15:38:06;3.77;;;3.37;;
12363;SDS011;6246;50.826;4.712;2022-12-18T15:40:32;4.17;;;3.40;;
12363;SDS011;6246;50.826;4.712;2022-12-18T15:42:58;4.27;;;3.87;;
12363;SDS011;6246;50.826;4.712;2022-12-18T15:45:43;4.27;;;3.50;;
12363;SDS011;6246;50.826;4.712;2022-12-18T15:48:22;4.53;;;3.90;;
12363;SDS011;6246;50.826;4.712;2022-12-18T15:50:49;4.57;;;3.87;;
12363;SDS011;6246;50.826;4.712;2022-12-18T15:53:16;4.80;;;3.57;;
12363;SDS011;6246;50.826;4.712;2022-12-18T15:55:42;4.20;;;3.27;;
12363;SDS011;6246;50.826;4.712;2022-12-18T15:58:26;5.00;;;3.80;;
12363;SDS011;6246;50.826;4.712;2022-12-18T16:00:52;3.80;;;3.40;;
12363;SDS011;6246;50.826;4.712;2022-12-18T16:03:19;4.03;;;3.60;;
12363;SDS011;6246;50.826;4.712;2022-12-18T16:05:45;4.00;;;3.60;;
12363;SDS011;6246;50.826;4.712;2022-12-18T16:08:11;4.60;;;3.83;;
12363;SDS011;6246;50.826;4.712;2022-12-18T16:10:37;4.73;;;3.83;;
12363;SDS011;6246;50.826;4.712;2022-12-18T16:13:03;5.57;;;3.50;;
12363;SDS011;6246;50.826;4.712;2022-12-18T16:15:29;4.00;;;3.60;;
12363;SDS011;6246;50.826;4.712;2022-12-18T16:17:55;3.53;;;3.17;;
12363;SDS011;6246;50.826;4.712;2022-12-18T16:20:22;3.83;;;3.43;;
12363;SDS011;6246;50.826;4.712;2022-12-18T16:22:48;5.43;;;4.20;;
12363;SDS011;6246;50.826;4.712;2022-12-18T16:25:21;4.40;;;4.00;;
12363;SDS011;6246;50.826;4.712;2022-12-18T16:27:48;4.07;;;3.67;;
12363;SDS011;6246;50.826;4.712;2022-12-18T16:30:15;4.90;;;4.00;;
12363;SDS011;6246;50.826;4.712;2022-12-18T16:32:41;4.77;;;3.93;;
12363;SDS011;6246;50.826;4.712;2022-12-18T16:35:09;4.90;;;3.93;;
12363;SDS011;6246;50.826;4.712;2022-12-18T16:37:35;4.83;;;3.90;;
12363;SDS011;6246;50.826;4.712;2022-12-18T16:40:01;7.17;;;4.57;;
12363;SDS011;6246;50.826;4.712;2022-12-18T16:42:27;4.13;;;3.63;;
12363;SDS011;6246;50.826;4.712;2022-12-18T16:44:53;4.67;;;4.10;;
12363;SDS011;6246;50.826;4.712;2022-12-18T16:47:19;7.17;;;4.40;;
12363;SDS011;6246;50.826;4.712;2022-12-18T16:49:45;4.83;;;3.97;;
12363;SDS011;6246;50.826;4.712;2022-12-18T16:52:11;4.93;;;3.93;;
12363;SDS011;6246;50.826;4.712;2022-12-18T16:54:37;5.03;;;4.27;;
12363;SDS011;6246;50.826;4.712;2022-12-18T16:57:03;6.13;;;4.40;;